Time;durP1;ratioP1;P1;durP2;ratioP2;P2;SDS_P1;SDS_P2;PMS_P1;PMS_P2;Temp;Humidity;BMP_temperature;BMP_pressure;BME280_temperature;BME280_humidity;BME280_pressure;Samples;Min_cycle;Max_cycle;Signal;HPM_P1;HPM_P2
2022/01/23 00:02:12;;;;;;;36.50;17.58;;;5.00;92.40;;;;;;4955450;28;20098;-85
2022/01/23 00:04:39;;;;;;;32.58;17.77;;;5.00;92.20;;;;;;4961057;28;20413;-85
2022/01/23 00:07:09;;;;;;;33.58;17.50;;;5.10;92.20;;;;;;4944625;28;20060;-85
2022/01/23 00:09:37;;;;;;;32.45;18.23;;;5.00;92.10;;;;;;4952359;28;20052;-86
2022/01/23 00:12:09;;;;;;;31.73;18.42;;;5.10;92.00;;;;;;4958913;28;20577;-86
2022/01/23 00:17:24;;;;;;;30.83;17.55;;;5.10;91.80;;;;;;5005994;28;20857;-86
2022/01/23 00:19:56;;;;;;;29.17;17.10;;;5.10;91.70;;;;;;5064761;28;20080;-86
2022/01/23 00:22:36;;;;;;;30.30;17.40;;;5.10;91.80;;;;;;5095804;28;20048;-86
2022/01/23 00:30:36;;;;;;;29.10;16.92;;;5.10;91.70;;;;;;5099842;28;20879;-86
2022/01/23 00:33:04;;;;;;;29.65;16.42;;;5.10;91.80;;;;;;5099829;27;20131;-85
2022/01/23 00:35:32;;;;;;;33.03;17.55;;;5.00;91.80;;;;;;5095762;28;20516;-86
2022/01/23 00:38:01;;;;;;;28.73;16.48;;;5.00;91.80;;;;;;5097022;28;20056;-86
2022/01/23 00:40:31;;;;;;;37.03;17.38;;;5.00;92.00;;;;;;5104870;28;20044;-86
2022/01/23 00:43:00;;;;;;;34.72;16.77;;;5.00;91.90;;;;;;5100225;27;20052;-86
2022/01/23 00:48:04;;;;;;;28.90;16.27;;;5.00;92.00;;;;;;5101574;27;20102;-86
2022/01/23 00:50:49;;;;;;;26.30;15.40;;;5.00;92.00;;;;;;5094794;28;20048;-86
2022/01/23 00:53:16;;;;;;;30.33;15.50;;;5.00;91.90;;;;;;5095352;28;20063;-86
2022/01/23 00:55:45;;;;;;;32.65;16.98;;;5.00;91.90;;;;;;5105314;27;20483;-86
2022/01/23 00:58:13;;;;;;;27.80;15.73;;;5.00;92.00;;;;;;5111971;28;20052;-86
2022/01/23 01:00:42;;;;;;;35.85;16.52;;;5.00;92.30;;;;;;5101839;28;21000;-86
2022/01/23 01:03:09;;;;;;;32.05;15.55;;;5.00;92.00;;;;;;5103883;28;20431;-86
2022/01/23 01:05:36;;;;;;;30.73;15.75;;;5.00;92.00;;;;;;5100088;28;20048;-87
2022/01/23 01:08:05;;;;;;;25.17;15.88;;;5.00;91.90;;;;;;5100837;28;20132;-85
2022/01/23 01:10:40;;;;;;;29.65;16.48;;;4.90;91.90;;;;;;5094930;28;20059;-86
2022/01/23 01:13:12;;;;;;;25.42;14.55;;;5.00;92.00;;;;;;5098013;28;20440;-86
2022/01/23 01:32:15;;;;;;;26.55;14.73;;;4.90;92.20;;;;;;5094345;28;20056;-86
2022/01/23 01:34:49;;;;;;;29.48;15.18;;;4.90;92.00;;;;;;5095061;28;20104;-86
2022/01/23 01:37:16;;;;;;;29.63;15.27;;;4.90;92.10;;;;;;5097699;28;20059;-86
2022/01/23 01:39:43;;;;;;;33.70;15.43;;;4.90;92.10;;;;;;5109990;28;20568;-86
2022/01/23 01:42:10;;;;;;;28.88;14.63;;;4.90;92.10;;;;;;5095554;28;20041;-86
2022/01/23 01:44:36;;;;;;;28.17;14.98;;;4.90;92.40;;;;;;5098428;28;20136;-86
2022/01/23 01:47:07;;;;;;;23.95;14.32;;;4.80;92.20;;;;;;5098323;28;20048;-86
2022/01/23 01:49:33;;;;;;;25.25;14.55;;;4.90;92.40;;;;;;5096085;27;20059;-86
2022/01/23 01:52:02;;;;;;;29.27;15.10;;;4.90;92.20;;;;;;5103760;28;20072;-86
2022/01/23 01:54:31;;;;;;;24.83;14.70;;;4.90;92.20;;;;;;5098568;28;20136;-86
2022/01/23 01:57:10;;;;;;;26.13;13.80;;;4.90;92.20;;;;;;5092910;28;20420;-86
2022/01/23 02:00:10;;;;;;;23.45;14.02;;;4.90;92.20;;;;;;5107813;27;20050;-86
2022/01/23 02:10:59;;;;;;;26.48;14.95;;;4.80;92.70;;;;;;5098238;28;20079;-86
2022/01/23 02:13:37;;;;;;;28.92;13.73;;;4.90;92.80;;;;;;5110470;27;20052;-86
2022/01/23 02:57:09;;;;;;;29.27;16.00;;;5.10;93.40;;;;;;5057610;28;20075;-86
2022/01/23 02:59:38;;;;;;;25.92;15.65;;;5.10;93.40;;;;;;5097819;28;20095;-86
2022/01/23 03:04:54;;;;;;;39.70;16.13;;;5.10;93.20;;;;;;5100134;28;20087;-86
2022/01/23 03:07:38;;;;;;;38.03;16.63;;;5.10;93.60;;;;;;5108071;28;20041;-86
2022/01/23 03:10:17;;;;;;;33.42;16.05;;;5.10;93.80;;;;;;5101320;28;20070;-86
2022/01/23 03:13:37;;;;;;;30.27;15.40;;;5.10;93.80;;;;;;5101941;28;20052;-86
2022/01/23 03:24:16;;;;;;;34.85;16.20;;;5.20;93.50;;;;;;5096581;27;20045;-86
2022/01/23 03:29:24;;;;;;;28.63;15.88;;;5.20;93.60;;;;;;5112528;27;20052;-86
2022/01/23 03:34:19;;;;;;;27.23;14.75;;;5.20;93.60;;;;;;5095908;28;21078;-86
2022/01/23 03:36:46;;;;;;;37.90;15.95;;;5.20;93.40;;;;;;5095522;28;20049;-86
2022/01/23 03:39:12;;;;;;;30.52;16.02;;;5.20;93.30;;;;;;5108354;28;20044;-86
2022/01/23 03:41:42;;;;;;;26.55;15.07;;;5.20;93.40;;;;;;5098422;27;20043;-86
2022/01/23 03:44:10;;;;;;;31.05;13.75;;;5.20;93.40;;;;;;5098775;28;20798;-86
2022/01/23 03:47:12;;;;;;;36.75;16.52;;;5.20;93.30;;;;;;5098192;28;20936;-86
2022/01/23 03:49:37;;;;;;;38.72;16.60;;;5.20;93.30;;;;;;5094799;28;20049;-86
2022/01/23 03:52:11;;;;;;;26.50;14.93;;;5.20;93.70;;;;;;5095596;28;20056;-86
2022/01/23 03:54:39;;;;;;;30.42;15.50;;;5.20;93.90;;;;;;5100750;28;20051;-87
2022/01/23 03:57:07;;;;;;;25.83;14.95;;;5.20;93.70;;;;;;5105423;28;20167;-87
2022/01/23 03:59:35;;;;;;;39.08;17.05;;;5.20;93.60;;;;;;5100334;28;20044;-87
2022/01/23 04:02:02;;;;;;;29.27;15.30;;;5.20;93.50;;;;;;5106808;28;20797;-87
2022/01/23 04:04:42;;;;;;;25.65;13.95;;;5.20;93.50;;;;;;5101103;28;20503;-86
2022/01/23 04:07:21;;;;;;;24.25;13.75;;;5.20;93.30;;;;;;5096006;28;20056;-86
2022/01/23 04:09:48;;;;;;;27.98;14.65;;;5.20;93.20;;;;;;5102983;28;20048;-86
2022/01/23 04:15:18;;;;;;;33.20;16.05;;;5.20;93.00;;;;;;5096494;27;20132;-86
2022/01/23 05:01:27;;;;;;;32.22;16.65;;;5.00;93.60;;;;;;5094543;28;20424;-84
2022/01/23 05:06:37;;;;;;;30.02;14.13;;;5.00;93.60;;;;;;5103411;28;20048;-87
2022/01/23 05:09:06;;;;;;;41.80;15.48;;;5.00;93.40;;;;;;5100395;28;20162;-86
2022/01/23 05:11:32;;;;;;;38.85;17.00;;;5.00;93.30;;;;;;5100634;27;20040;-86
2022/01/23 05:14:03;;;;;;;35.33;16.23;;;5.00;93.60;;;;;;5094555;28;20049;-86
2022/01/23 05:16:32;;;;;;;38.72;16.98;;;5.00;94.00;;;;;;5093562;28;20098;-86
2022/01/23 05:19:00;;;;;;;28.05;14.35;;;5.00;94.00;;;;;;5107641;28;20587;-86
2022/01/23 05:24:14;;;;;;;42.45;16.73;;;5.00;93.70;;;;;;5094215;28;20059;-86
2022/01/23 05:26:44;;;;;;;41.50;17.08;;;5.00;93.80;;;;;;5094442;28;20103;-86
2022/01/23 05:29:13;;;;;;;23.48;13.65;;;4.90;94.10;;;;;;5099080;28;20482;-86
2022/01/23 05:31:40;;;;;;;27.75;15.45;;;4.90;93.90;;;;;;5094718;28;20048;-87
2022/01/23 05:34:07;;;;;;;48.45;18.10;;;5.00;93.70;;;;;;5102983;28;20035;-86
2022/01/23 05:36:34;;;;;;;51.83;18.13;;;4.90;93.60;;;;;;5097573;28;20132;-86
2022/01/23 05:39:01;;;;;;;39.95;15.82;;;4.90;93.80;;;;;;5104925;28;20064;-86
2022/01/23 05:41:27;;;;;;;27.90;13.85;;;4.90;94.20;;;;;;5106111;27;20056;-87
2022/01/23 05:43:54;;;;;;;29.45;14.27;;;4.90;94.30;;;;;;5112198;28;20080;-86
2022/01/23 05:46:21;;;;;;;31.45;14.75;;;4.90;94.10;;;;;;5107450;28;20409;-86
2022/01/23 05:48:48;;;;;;;43.17;17.48;;;4.90;94.10;;;;;;5116605;28;20853;-86
2022/01/23 05:51:15;;;;;;;36.83;17.58;;;4.90;94.10;;;;;;5120583;27;20052;-86
2022/01/23 05:53:42;;;;;;;30.27;15.75;;;4.90;94.00;;;;;;5115715;27;20092;-86
2022/01/23 05:56:09;;;;;;;42.65;18.48;;;4.90;93.80;;;;;;5108932;28;20060;-86
2022/01/23 05:58:37;;;;;;;48.33;17.92;;;4.90;93.80;;;;;;5108609;28;20097;-86
2022/01/23 06:01:04;;;;;;;36.28;16.63;;;4.90;94.10;;;;;;5116806;28;20041;-86
2022/01/23 06:03:31;;;;;;;30.48;15.50;;;5.00;94.00;;;;;;5113491;28;20121;-86
2022/01/23 06:05:57;;;;;;;31.02;15.95;;;4.90;94.10;;;;;;5109838;27;20219;-86
2022/01/23 06:08:25;;;;;;;31.65;14.90;;;4.90;94.00;;;;;;5111235;27;20052;-86
2022/01/23 06:10:58;;;;;;;25.02;14.02;;;4.90;93.80;;;;;;5103939;28;20048;-86
2022/01/23 06:13:31;;;;;;;33.58;15.68;;;5.00;93.60;;;;;;5095171;28;20052;-86
2022/01/23 06:15:58;;;;;;;39.80;16.58;;;4.90;93.50;;;;;;5094683;27;20045;-87
2022/01/23 06:18:25;;;;;;;35.10;15.15;;;4.90;93.60;;;;;;5100112;28;20070;-87
2022/01/23 06:20:54;;;;;;;49.88;17.98;;;4.90;93.70;;;;;;5096649;27;20061;-86
2022/01/23 06:23:21;;;;;;;40.33;16.70;;;4.90;93.80;;;;;;5093216;28;20044;-86
2022/01/23 06:25:48;;;;;;;34.40;15.93;;;4.90;94.10;;;;;;5096200;28;20817;-85
2022/01/23 06:28:36;;;;;;;26.20;14.90;;;4.90;94.10;;;;;;5106202;28;20053;-86
2022/01/23 06:31:03;;;;;;;28.70;14.45;;;4.90;93.90;;;;;;5099951;28;20059;-85
2022/01/23 06:33:30;;;;;;;34.75;16.77;;;4.90;93.70;;;;;;5096027;28;20044;-85
2022/01/23 06:35:57;;;;;;;50.60;17.80;;;4.90;93.60;;;;;;5103445;28;20053;-85
2022/01/23 06:38:23;;;;;;;54.30;17.40;;;4.90;93.70;;;;;;5096680;28;20864;-85
2022/01/23 06:40:51;;;;;;;50.75;17.23;;;4.80;94.00;;;;;;5100377;28;20029;-86
2022/01/23 06:43:18;;;;;;;43.20;16.90;;;4.80;94.10;;;;;;5107635;28;20028;-85
2022/01/23 06:45:45;;;;;;;28.30;15.18;;;4.80;94.20;;;;;;5097937;27;20045;-85
2022/01/23 06:48:11;;;;;;;29.27;14.05;;;4.80;94.30;;;;;;5100759;28;20420;-85
2022/01/23 06:50:38;;;;;;;29.73;15.45;;;4.80;94.20;;;;;;5103127;28;20068;-85
2022/01/23 06:53:05;;;;;;;37.47;15.13;;;4.70;94.10;;;;;;5095896;28;20174;-85
2022/01/23 06:55:32;;;;;;;47.53;17.50;;;4.70;94.00;;;;;;5095661;28;20861;-85
2022/01/23 06:58:01;;;;;;;46.88;18.02;;;4.70;94.00;;;;;;5095741;28;20048;-85
2022/01/23 07:00:27;;;;;;;29.38;14.57;;;4.70;94.40;;;;;;5095642;28;20927;-86
2022/01/23 07:02:54;;;;;;;25.15;14.10;;;4.70;94.40;;;;;;5099205;28;20503;-85
2022/01/23 07:05:21;;;;;;;33.00;14.60;;;4.70;94.30;;;;;;5102336;27;20048;-85
2022/01/23 07:07:48;;;;;;;27.95;15.57;;;4.70;94.10;;;;;;5107628;28;20051;-85
2022/01/23 07:10:16;;;;;;;28.15;15.10;;;4.70;93.90;;;;;;5099885;28;20130;-85
2022/01/23 07:12:42;;;;;;;45.38;16.80;;;4.70;93.80;;;;;;5106785;27;20060;-85
2022/01/23 07:15:09;;;;;;;47.65;18.67;;;4.70;93.90;;;;;;5101706;28;20055;-85
2022/01/23 07:17:40;;;;;;;49.70;19.52;;;4.70;94.50;;;;;;5096255;28;20061;-86
2022/01/23 07:20:08;;;;;;;31.50;16.17;;;4.70;95.40;;;;;;5094341;28;20048;-85
2022/01/23 07:22:35;;;;;;;31.33;14.60;;;4.70;95.40;;;;;;5098102;28;20628;-85
2022/01/23 07:25:04;;;;;;;29.98;15.05;;;4.70;95.20;;;;;;5100474;28;20136;-86
2022/01/23 07:27:36;;;;;;;29.38;14.70;;;4.70;94.90;;;;;;5099050;28;20052;-85
2022/01/23 07:30:21;;;;;;;26.25;13.95;;;4.70;94.70;;;;;;5093463;28;20137;-86
2022/01/23 07:32:49;;;;;;;26.88;14.70;;;4.80;94.40;;;;;;5094157;28;20139;-85
2022/01/23 07:35:16;;;;;;;29.63;15.18;;;4.80;94.30;;;;;;5101361;27;20050;-86
2022/01/23 07:37:42;;;;;;;39.67;17.38;;;4.80;94.20;;;;;;5104409;27;20145;-85
2022/01/23 07:40:09;;;;;;;58.67;18.02;;;4.70;94.10;;;;;;5097968;28;20530;-85
2022/01/23 07:42:39;;;;;;;48.90;17.23;;;4.70;94.20;;;;;;5093429;28;20091;-85
2022/01/23 07:45:06;;;;;;;37.78;16.45;;;4.70;94.60;;;;;;5099438;28;20128;-86
2022/01/23 07:47:35;;;;;;;28.92;14.63;;;4.70;94.70;;;;;;5093593;28;20405;-88
2022/01/23 07:50:06;;;;;;;28.33;14.65;;;4.70;94.60;;;;;;5106460;28;20121;-85
2022/01/23 07:52:37;;;;;;;44.20;16.70;;;4.70;94.60;;;;;;5100064;27;20053;-84
2022/01/23 07:55:09;;;;;;;41.90;16.65;;;4.80;94.40;;;;;;5093357;28;20094;-85
2022/01/23 07:57:37;;;;;;;55.30;16.02;;;4.70;94.60;;;;;;5098640;28;20048;-86
2022/01/23 08:00:10;;;;;;;34.35;14.23;;;4.70;94.60;;;;;;5101433;28;20044;-86
2022/01/23 08:02:37;;;;;;;43.70;15.93;;;4.70;94.80;;;;;;5092072;28;20102;-85
2022/01/23 08:05:05;;;;;;;31.35;15.00;;;4.70;94.90;;;;;;5098431;28;20055;-85
2022/01/23 08:07:32;;;;;;;40.88;15.02;;;4.70;95.00;;;;;;5092720;28;20075;-86
2022/01/23 08:10:02;;;;;;;31.85;15.13;;;4.70;94.90;;;;;;5104136;28;20052;-86
2022/01/23 08:12:30;;;;;;;26.88;14.00;;;4.70;94.90;;;;;;5092436;28;20079;-86
2022/01/23 08:14:58;;;;;;;30.08;13.88;;;4.80;95.10;;;;;;5098564;28;20056;-86
2022/01/23 08:17:30;;;;;;;31.85;14.25;;;4.80;95.20;;;;;;5097091;28;20060;-86
2022/01/23 08:20:01;;;;;;;25.40;13.25;;;4.90;95.30;;;;;;5100046;28;20144;-86
2022/01/23 08:22:30;;;;;;;29.23;14.65;;;4.90;95.10;;;;;;5068178;27;1048987;-86
2022/01/23 08:24:57;;;;;;;32.85;14.95;;;4.90;95.00;;;;;;5093095;28;20044;-85
2022/01/23 08:27:29;;;;;;;38.42;14.80;;;5.00;95.10;;;;;;5094674;28;20051;-86
2022/01/23 08:29:57;;;;;;;33.50;14.55;;;5.00;95.20;;;;;;5093985;28;20053;-86
2022/01/23 08:32:27;;;;;;;49.60;15.43;;;5.00;95.40;;;;;;5095198;28;20792;-86
2022/01/23 08:34:54;;;;;;;35.60;14.88;;;5.00;95.50;;;;;;5108007;27;20462;-86
2022/01/23 08:37:20;;;;;;;46.58;16.00;;;5.10;95.70;;;;;;5099804;28;20056;-85
2022/01/23 08:39:47;;;;;;;36.50;15.45;;;5.10;95.60;;;;;;5094688;28;20056;-86
2022/01/23 08:42:16;;;;;;;31.15;14.65;;;5.10;95.60;;;;;;5101853;28;20049;-86
2022/01/23 08:44:44;;;;;;;38.63;15.50;;;5.20;95.40;;;;;;5093725;28;20044;-86
2022/01/23 08:47:11;;;;;;;36.78;15.52;;;5.20;95.20;;;;;;5098244;28;20052;-86
2022/01/23 08:49:44;;;;;;;33.83;14.95;;;5.20;95.10;;;;;;5099003;28;20060;-86
2022/01/23 08:52:12;;;;;;;;;;;5.20;95.20;;;;;;5094434;28;20045;-86
2022/01/23 08:54:39;;;;;;;30.63;14.55;;;5.30;95.30;;;;;;5105194;28;19924;-85
2022/01/23 08:57:06;;;;;;;28.33;14.70;;;5.30;95.30;;;;;;5094676;27;20049;-86
2022/01/23 08:59:33;;;;;;;36.15;15.27;;;5.30;95.20;;;;;;5097454;28;20150;-86
2022/01/23 09:01:59;;;;;;;36.13;16.02;;;5.30;95.30;;;;;;5095639;27;20139;-85
2022/01/23 09:04:26;;;;;;;32.22;15.45;;;5.30;95.40;;;;;;5103877;28;20055;-86
2022/01/23 09:06:58;;;;;;;30.08;14.52;;;5.40;95.30;;;;;;5094128;27;20075;-86
2022/01/23 09:09:30;;;;;;;31.65;16.02;;;5.40;95.20;;;;;;5100020;28;20139;-86
2022/01/23 09:12:07;;;;;;;30.25;15.02;;;5.40;95.10;;;;;;5097645;28;20044;-86
2022/01/23 09:14:34;;;;;;;29.50;15.45;;;5.50;95.10;;;;;;5092505;28;20055;-86
2022/01/23 09:17:02;;;;;;;29.40;14.13;;;5.60;94.90;;;;;;5102795;28;20063;-86
2022/01/23 09:19:31;;;;;;;35.78;15.60;;;5.60;94.70;;;;;;5103802;28;20048;-85
2022/01/23 09:21:59;;;;;;;32.63;15.80;;;5.60;94.70;;;;;;5112770;28;20135;-86
2022/01/23 09:24:27;;;;;;;33.75;15.80;;;5.60;94.90;;;;;;5105246;28;20052;-86
2022/01/23 09:27:01;;;;;;;38.58;17.38;;;5.70;94.90;;;;;;5099964;28;20491;-86
2022/01/23 09:29:37;;;;;;;29.10;15.50;;;5.70;94.90;;;;;;5094607;28;20056;-86
2022/01/23 09:32:11;;;;;;;29.67;15.98;;;5.70;94.50;;;;;;5093490;28;20051;-86
2022/01/23 09:34:41;;;;;;;26.95;15.15;;;5.60;94.40;;;;;;5099407;28;20565;-85
2022/01/23 09:37:10;;;;;;;29.05;15.20;;;5.60;94.40;;;;;;5100547;28;20056;-86
2022/01/23 09:39:39;;;;;;;31.92;15.40;;;5.70;94.50;;;;;;5102947;28;20052;-86
2022/01/23 09:42:14;;;;;;;26.08;14.02;;;5.70;94.50;;;;;;5100921;28;20048;-85
2022/01/23 09:44:51;;;;;;;27.25;14.15;;;5.80;94.50;;;;;;5101180;28;20041;-85
2022/01/23 09:47:20;;;;;;;32.15;13.82;;;5.90;94.40;;;;;;5114360;28;20112;-86
2022/01/23 09:49:48;;;;;;;25.58;13.18;;;5.90;94.30;;;;;;5114771;28;20036;-86
2022/01/23 09:52:17;;;;;;;24.05;13.80;;;5.90;94.20;;;;;;5109751;28;20082;-85
2022/01/23 09:54:55;;;;;;;23.75;12.45;;;5.90;94.00;;;;;;5093720;28;20091;-86
2022/01/23 09:57:29;;;;;;;23.88;13.48;;;6.00;94.00;;;;;;5093973;28;20049;-86
2022/01/23 09:59:58;;;;;;;24.10;12.23;;;6.10;94.20;;;;;;5105544;28;20052;-86
2022/01/23 10:02:25;;;;;;;22.27;12.38;;;6.10;93.30;;;;;;5099510;28;20052;-85
2022/01/23 10:04:53;;;;;;;25.10;12.23;;;6.20;93.80;;;;;;5092886;28;20044;-85
2022/01/23 10:07:21;;;;;;;21.75;12.13;;;6.30;94.00;;;;;;5092674;28;20036;-85
2022/01/23 10:09:54;;;;;;;19.48;11.25;;;6.30;93.80;;;;;;5094607;28;20135;-85
2022/01/23 10:12:26;;;;;;;22.27;11.75;;;6.30;93.00;;;;;;5100688;27;20052;-85
2022/01/23 10:14:56;;;;;;;20.23;11.68;;;6.40;93.00;;;;;;5099439;27;20062;-86
2022/01/23 10:17:25;;;;;;;20.25;10.48;;;6.50;93.40;;;;;;5110639;28;20498;-86
2022/01/23 10:19:52;;;;;;;22.20;11.13;;;6.50;92.80;;;;;;5105159;28;20056;-85
2022/01/23 10:22:19;;;;;;;16.90;9.95;;;6.60;92.40;;;;;;5092562;28;20135;-86
2022/01/23 10:24:46;;;;;;;17.08;10.10;;;6.60;91.20;;;;;;5102852;28;20878;-86
2022/01/23 10:27:13;;;;;;;14.27;8.60;;;6.50;90.90;;;;;;5100762;27;20048;-86
2022/01/23 10:29:44;;;;;;;16.10;9.25;;;6.50;90.80;;;;;;5103990;28;20131;-86
2022/01/23 10:32:21;;;;;;;13.35;7.85;;;6.40;89.30;;;;;;5098225;27;20068;-85
2022/01/23 10:34:57;;;;;;;16.58;9.65;;;6.40;89.40;;;;;;5094771;28;20056;-86
2022/01/23 10:37:26;;;;;;;15.88;9.25;;;6.50;90.80;;;;;;5101068;27;20058;-86
2022/01/23 10:40:10;;;;;;;17.50;9.45;;;6.50;90.10;;;;;;5096285;28;20045;-86
2022/01/23 10:48:35;;;;;;;18.02;9.60;;;6.60;90.60;;;;;;5100471;28;20044;-86
2022/01/23 10:51:22;;;;;;;17.27;8.93;;;6.70;90.60;;;;;;5092765;28;20048;-86
2022/01/23 10:54:22;;;;;;;15.35;9.07;;;6.80;90.30;;;;;;5100341;28;20059;-86
2022/01/23 10:57:06;;;;;;;20.50;10.07;;;6.80;89.50;;;;;;5085925;28;20629;-86
2022/01/23 11:00:02;;;;;;;16.95;9.32;;;6.70;88.60;;;;;;5092864;28;20056;-86
2022/01/23 11:02:29;;;;;;;17.05;9.93;;;6.70;89.00;;;;;;5105041;28;20404;-87
2022/01/23 11:05:08;;;;;;;15.10;9.07;;;6.80;89.30;;;;;;5099648;28;20173;-86
2022/01/23 11:07:40;;;;;;;15.32;9.32;;;6.80;88.20;;;;;;5099073;28;20052;-86
2022/01/23 11:10:14;;;;;;;18.52;9.77;;;6.90;88.40;;;;;;5101589;27;20072;-86
2022/01/23 11:18:12;;;;;;;14.75;8.38;;;6.90;88.20;;;;;;5107284;28;20138;-86
2022/01/23 11:20:50;;;;;;;12.27;7.43;;;6.90;86.60;;;;;;5103156;27;20064;-86
2022/01/23 11:23:38;;;;;;;14.07;8.07;;;6.80;86.90;;;;;;5096192;28;20048;-86
2022/01/23 11:26:11;;;;;;;13.88;7.97;;;6.80;86.70;;;;;;5095916;28;20507;-86
2022/01/23 11:28:45;;;;;;;13.48;8.88;;;6.90;86.80;;;;;;5100344;28;20060;-86
2022/01/23 11:31:19;;;;;;;14.95;9.07;;;6.90;87.10;;;;;;5104207;28;20056;-86
2022/01/23 11:33:46;;;;;;;;;;;6.90;86.30;;;;;;5106555;28;20057;-86
2022/01/23 11:36:14;;;;;;;14.25;8.98;;;6.90;87.00;;;;;;5097434;28;19935;-86
2022/01/23 11:38:44;;;;;;;16.63;8.85;;;7.00;86.90;;;;;;5102003;28;20056;-86
2022/01/23 11:54:50;;;;;;;13.07;7.35;;;7.10;85.60;;;;;;5102572;28;20056;-87
2022/01/23 11:57:38;;;;;;;15.38;8.57;;;7.00;84.20;;;;;;5099263;28;20056;-85
2022/01/23 12:00:20;;;;;;;14.98;8.00;;;7.10;85.70;;;;;;5102225;28;20135;-85
2022/01/23 12:03:12;;;;;;;13.95;7.05;;;7.20;86.20;;;;;;5109295;28;20056;-86
2022/01/23 12:05:50;;;;;;;10.63;6.75;;;7.20;83.40;;;;;;5096929;28;20082;-86
2022/01/23 12:08:34;;;;;;;9.90;6.25;;;7.20;84.70;;;;;;5109962;27;20047;-86
2022/01/23 12:16:24;;;;;;;15.60;7.38;;;7.20;85.10;;;;;;5094698;28;20091;-86
2022/01/23 12:17:22;;;;;;;10.70;6.50;;;7.30;84.10;;;;;;5108140;28;20139;-86
2022/01/23 12:19:58;;;;;;;12.02;6.40;;;7.40;85.10;;;;;;5101611;28;20796;-86
2022/01/23 12:22:36;;;;;;;12.98;6.50;;;7.30;82.20;;;;;;5094220;28;20515;-86
2022/01/23 12:25:12;;;;;;;11.88;6.20;;;7.20;81.00;;;;;;5107210;27;20052;-86
2022/01/23 12:28:13;;;;;;;10.35;6.35;;;7.10;81.60;;;;;;5100838;28;20048;-87
2022/01/23 12:30:45;;;;;;;12.18;6.53;;;7.20;81.50;;;;;;5099007;28;20049;-86
2022/01/23 12:33:44;;;;;;;10.63;6.03;;;7.10;82.10;;;;;;5113490;28;20056;-86
2022/01/23 12:36:14;;;;;;;11.38;6.50;;;7.20;82.30;;;;;;5104824;28;20075;-86
2022/01/23 12:38:46;;;;;;;10.80;6.43;;;7.20;82.20;;;;;;5104797;28;20048;-86
2022/01/23 12:41:30;;;;;;;9.30;5.78;;;7.30;82.30;;;;;;5103796;28;20048;-86
2022/01/23 12:44:29;;;;;;;10.95;6.32;;;7.40;83.50;;;;;;5108688;28;20044;-87
2022/01/23 12:46:58;;;;;;;11.35;5.88;;;7.30;80.90;;;;;;5100109;28;20100;-86
2022/01/23 12:49:47;;;;;;;10.75;6.00;;;7.30;81.10;;;;;;5098983;27;20041;-85
2022/01/23 12:52:25;;;;;;;10.38;6.35;;;7.20;82.50;;;;;;5104146;28;20669;-86
2022/01/23 12:54:57;;;;;;;10.52;6.03;;;7.20;81.20;;;;;;5097923;28;20826;-86
2022/01/23 12:57:42;;;;;;;15.15;6.82;;;7.20;81.00;;;;;;5099029;28;20691;-86
2022/01/23 13:00:28;;;;;;;11.90;6.47;;;7.10;81.40;;;;;;5111060;28;20079;-86
2022/01/23 13:03:22;;;;;;;12.68;7.43;;;7.20;82.20;;;;;;5083232;27;20051;-86
2022/01/23 13:05:52;;;;;;;13.23;7.53;;;7.20;83.00;;;;;;5095672;28;20080;-86
2022/01/23 13:08:25;;;;;;;13.75;7.22;;;7.30;82.30;;;;;;5101970;28;20055;-86
2022/01/23 13:13:38;;;;;;;11.73;7.22;;;7.10;82.80;;;;;;5106086;27;20879;-85
2022/01/23 13:18:47;;;;;;;12.02;7.47;;;7.20;82.20;;;;;;5099605;28;20053;-86
2022/01/23 13:32:42;;;;;;;12.10;7.28;;;7.10;81.50;;;;;;5111770;28;20108;-86
2022/01/23 13:35:13;;;;;;;12.18;7.53;;;7.10;82.50;;;;;;5116118;28;20044;-85
2022/01/23 13:37:45;;;;;;;10.93;6.97;;;7.20;82.40;;;;;;5110925;28;20098;-85
2022/01/23 13:40:13;;;;;;;12.73;7.20;;;7.30;82.60;;;;;;5126742;28;20116;-85
2022/01/23 13:48:00;;;;;;;12.05;7.45;;;7.20;81.40;;;;;;5120116;28;20062;-86
2022/01/23 13:52:10;;;;;;;11.45;6.85;;;7.20;81.40;;;;;;5057182;28;20136;-86
2022/01/23 13:57:49;;;;;;;12.43;6.40;;;7.20;82.10;;;;;;5050295;28;20140;-86
2022/01/23 14:00:24;;;;;;;10.98;6.45;;;7.20;82.10;;;;;;5050268;28;20045;-85
2022/01/23 14:02:52;;;;;;;10.18;6.45;;;7.20;82.40;;;;;;5023689;28;20581;-86
2022/01/23 14:05:26;;;;;;;11.07;6.88;;;7.20;81.10;;;;;;5049264;28;20119;-86
2022/01/23 14:07:57;;;;;;;11.50;6.80;;;7.20;81.80;;;;;;5049416;28;20297;-86
2022/01/23 14:10:29;;;;;;;12.75;6.88;;;7.20;82.10;;;;;;5045516;28;20060;-86
2022/01/23 14:13:06;;;;;;;11.05;6.88;;;7.20;83.00;;;;;;5042343;28;20053;-86
2022/01/23 14:15:48;;;;;;;12.00;6.90;;;7.30;83.00;;;;;;5034392;28;20509;-86
2022/01/23 14:18:28;;;;;;;11.88;7.40;;;7.20;81.70;;;;;;5049487;28;20100;-86
2022/01/23 14:21:02;;;;;;;10.63;7.05;;;7.20;83.20;;;;;;5041231;28;20145;-86
2022/01/23 14:23:34;;;;;;;12.48;7.03;;;7.20;81.50;;;;;;5050152;28;20053;-86
2022/01/23 14:26:15;;;;;;;13.97;7.37;;;7.10;82.50;;;;;;5020974;28;20046;-86
2022/01/23 14:28:48;;;;;;;12.10;7.28;;;7.10;82.50;;;;;;5097943;28;20047;-85
2022/01/23 14:31:36;;;;;;;12.40;6.85;;;7.10;82.60;;;;;;5092337;28;20139;-86
2022/01/23 14:34:23;;;;;;;11.52;7.15;;;7.10;82.50;;;;;;5092948;28;20099;-86
2022/01/23 14:37:06;;;;;;;11.43;6.72;;;7.10;82.80;;;;;;5093447;28;20416;-86
2022/01/23 14:39:36;;;;;;;12.55;7.68;;;7.10;81.90;;;;;;5098043;28;20435;-86
2022/01/23 14:42:20;;;;;;;14.10;7.35;;;7.10;81.90;;;;;;5094472;27;20049;-86
2022/01/23 14:44:47;;;;;;;13.13;7.72;;;7.00;82.50;;;;;;5094357;28;20798;-86
2022/01/23 14:47:14;;;;;;;11.70;7.00;;;7.10;83.00;;;;;;5103289;28;20051;-86
2022/01/23 14:49:45;;;;;;;13.35;7.30;;;7.00;82.80;;;;;;5101689;28;20157;-85
2022/01/23 14:52:17;;;;;;;12.27;7.65;;;7.00;83.30;;;;;;5101946;28;20218;-86
2022/01/23 14:54:44;;;;;;;13.00;7.45;;;7.00;82.30;;;;;;5104772;28;20056;-86
2022/01/23 14:57:14;;;;;;;11.38;7.05;;;7.00;82.50;;;;;;5101288;28;20059;-86
2022/01/23 14:59:42;;;;;;;12.55;7.47;;;7.00;83.20;;;;;;5099894;28;20049;-86
2022/01/23 15:02:12;;;;;;;13.18;7.40;;;6.90;83.10;;;;;;5096473;28;20368;-86
2022/01/23 15:04:41;;;;;;;11.13;6.82;;;6.90;83.20;;;;;;5103470;28;20857;-86
2022/01/23 15:07:14;;;;;;;11.68;7.38;;;6.80;82.10;;;;;;5096607;28;20047;-86
2022/01/23 15:09:42;;;;;;;14.45;7.82;;;6.80;83.40;;;;;;5095402;28;20151;-86
2022/01/23 15:12:09;;;;;;;12.50;6.90;;;6.80;83.80;;;;;;5095661;28;20492;-86
2022/01/23 15:14:36;;;;;;;12.88;7.75;;;6.80;83.90;;;;;;5102891;28;20103;-85
2022/01/23 15:17:03;;;;;;;13.23;8.02;;;6.80;83.10;;;;;;5107779;27;20523;-86
2022/01/23 15:19:30;;;;;;;11.68;7.70;;;6.70;83.60;;;;;;5098747;28;20848;-85
2022/01/23 15:21:57;;;;;;;14.15;8.00;;;6.70;83.20;;;;;;5102370;27;20049;-86
2022/01/23 15:24:24;;;;;;;13.32;7.78;;;6.70;83.50;;;;;;5099947;28;20048;-86
2022/01/23 15:26:51;;;;;;;14.18;7.82;;;6.70;83.50;;;;;;5109437;27;20056;-86
2022/01/23 15:29:20;;;;;;;14.55;7.60;;;6.70;82.50;;;;;;5098451;28;20135;-86
2022/01/23 15:31:52;;;;;;;14.20;7.80;;;6.70;82.90;;;;;;5101065;28;20487;-86
2022/01/23 15:34:38;;;;;;;14.45;7.55;;;6.60;82.70;;;;;;5104995;28;20056;-86
2022/01/23 15:37:18;;;;;;;15.68;8.75;;;6.60;83.10;;;;;;5100356;28;20079;-86
2022/01/23 15:39:52;;;;;;;13.07;7.25;;;6.60;83.10;;;;;;5107814;28;20483;-86
2022/01/23 15:42:22;;;;;;;13.13;7.53;;;6.60;83.20;;;;;;5098675;28;20110;-86
2022/01/23 15:44:49;;;;;;;16.67;8.30;;;6.60;83.30;;;;;;5095758;28;20053;-86
2022/01/23 15:47:15;;;;;;;14.93;7.75;;;6.50;82.90;;;;;;5109155;28;20098;-86
2022/01/23 15:49:45;;;;;;;13.40;7.55;;;6.50;83.10;;;;;;5104227;27;20055;-86
2022/01/23 15:52:15;;;;;;;14.05;8.02;;;6.40;83.10;;;;;;5095105;28;20514;-86
2022/01/23 15:54:45;;;;;;;13.60;7.80;;;6.40;83.60;;;;;;5099437;28;20080;-85
2022/01/23 15:57:23;;;;;;;14.02;8.20;;;6.40;83.70;;;;;;5103201;28;20062;-86
2022/01/23 15:59:50;;;;;;;16.20;8.48;;;6.40;83.90;;;;;;5098185;27;20072;-86
2022/01/23 16:02:20;;;;;;;16.38;8.85;;;6.40;84.00;;;;;;5093675;28;20531;-86
2022/01/23 16:04:52;;;;;;;14.63;8.57;;;6.40;83.90;;;;;;5104463;28;20056;-86
2022/01/23 16:07:26;;;;;;;15.32;8.20;;;6.40;84.00;;;;;;5102136;28;20279;-86
2022/01/23 16:10:07;;;;;;;17.13;9.07;;;6.40;84.30;;;;;;5100653;28;20056;-87
2022/01/23 16:12:37;;;;;;;17.95;8.27;;;6.40;84.10;;;;;;5112536;28;20044;-86
2022/01/23 16:15:09;;;;;;;17.40;9.75;;;6.40;84.10;;;;;;5104648;28;20060;-86
2022/01/23 16:17:36;;;;;;;16.30;8.95;;;6.40;84.20;;;;;;5107706;28;20140;-86
2022/01/23 16:20:07;;;;;;;17.55;9.50;;;6.30;84.30;;;;;;5093308;28;20055;-86
2022/01/23 16:22:37;;;;;;;19.80;10.25;;;6.30;84.30;;;;;;5096696;28;20048;-86
2022/01/23 16:25:04;;;;;;;15.57;9.18;;;6.30;84.40;;;;;;5098584;28;20052;-86